sensor_id;sensor_type;location;lat;lon;timestamp;P1;durP1;ratioP1;P2;durP2;ratioP2
45522;SDS011;31254;51.680;5.394;2022-12-18T00:03:46;66.60;;;28.13;;
45522;SDS011;31254;51.680;5.394;2022-12-18T00:06:14;61.47;;;25.47;;
45522;SDS011;31254;51.680;5.394;2022-12-18T00:08:42;65.13;;;26.67;;
45522;SDS011;31254;51.680;5.394;2022-12-18T00:11:13;72.27;;;28.40;;
45522;SDS011;31254;51.680;5.394;2022-12-18T00:13:44;64.27;;;27.03;;
45522;SDS011;31254;51.680;5.394;2022-12-18T00:16:12;61.17;;;23.90;;
45522;SDS011;31254;51.680;5.394;2022-12-18T00:18:41;55.93;;;24.03;;
45522;SDS011;31254;51.680;5.394;2022-12-18T00:21:09;55.90;;;24.63;;
45522;SDS011;31254;51.680;5.394;2022-12-18T00:23:38;61.43;;;24.33;;
45522;SDS011;31254;51.680;5.394;2022-12-18T00:26:11;59.87;;;24.90;;
45522;SDS011;31254;51.680;5.394;2022-12-18T00:28:39;58.80;;;25.17;;
45522;SDS011;31254;51.680;5.394;2022-12-18T00:31:09;68.33;;;25.47;;
45522;SDS011;31254;51.680;5.394;2022-12-18T00:33:38;61.10;;;24.33;;
45522;SDS011;31254;51.680;5.394;2022-12-18T00:36:11;63.67;;;25.37;;
45522;SDS011;31254;51.680;5.394;2022-12-18T00:38:40;64.80;;;24.93;;
45522;SDS011;31254;51.680;5.394;2022-12-18T00:41:08;50.30;;;23.13;;
45522;SDS011;31254;51.680;5.394;2022-12-18T00:43:37;61.73;;;24.03;;
45522;SDS011;31254;51.680;5.394;2022-12-18T00:46:05;53.43;;;21.87;;
45522;SDS011;31254;51.680;5.394;2022-12-18T00:48:32;53.17;;;23.37;;
45522;SDS011;31254;51.680;5.394;2022-12-18T00:51:01;50.93;;;22.37;;
45522;SDS011;31254;51.680;5.394;2022-12-18T00:53:28;58.60;;;20.97;;
45522;SDS011;31254;51.680;5.394;2022-12-18T00:55:55;54.93;;;21.97;;
45522;SDS011;31254;51.680;5.394;2022-12-18T00:58:21;51.97;;;20.17;;
45522;SDS011;31254;51.680;5.394;2022-12-18T01:00:48;57.03;;;22.60;;
45522;SDS011;31254;51.680;5.394;2022-12-18T01:03:14;51.70;;;21.63;;
45522;SDS011;31254;51.680;5.394;2022-12-18T01:05:41;54.97;;;22.87;;
45522;SDS011;31254;51.680;5.394;2022-12-18T01:08:08;49.17;;;21.43;;
45522;SDS011;31254;51.680;5.394;2022-12-18T01:10:35;57.10;;;22.23;;
45522;SDS011;31254;51.680;5.394;2022-12-18T01:13:02;52.00;;;22.73;;
45522;SDS011;31254;51.680;5.394;2022-12-18T01:15:29;52.30;;;21.23;;
45522;SDS011;31254;51.680;5.394;2022-12-18T01:17:55;50.07;;;22.63;;
45522;SDS011;31254;51.680;5.394;2022-12-18T01:20:22;50.27;;;21.93;;
45522;SDS011;31254;51.680;5.394;2022-12-18T01:22:48;52.80;;;22.63;;
45522;SDS011;31254;51.680;5.394;2022-12-18T01:25:15;48.53;;;21.30;;
45522;SDS011;31254;51.680;5.394;2022-12-18T01:27:41;48.33;;;19.93;;
45522;SDS011;31254;51.680;5.394;2022-12-18T01:30:10;51.87;;;21.03;;
45522;SDS011;31254;51.680;5.394;2022-12-18T01:32:37;47.63;;;21.80;;
45522;SDS011;31254;51.680;5.394;2022-12-18T01:35:04;50.33;;;21.33;;
45522;SDS011;31254;51.680;5.394;2022-12-18T01:37:31;50.20;;;21.83;;
45522;SDS011;31254;51.680;5.394;2022-12-18T01:39:58;53.53;;;21.53;;
45522;SDS011;31254;51.680;5.394;2022-12-18T01:42:24;53.20;;;20.87;;
45522;SDS011;31254;51.680;5.394;2022-12-18T01:50:37;46.63;;;19.33;;
45522;SDS011;31254;51.680;5.394;2022-12-18T01:53:16;49.07;;;19.70;;
45522;SDS011;31254;51.680;5.394;2022-12-18T01:58:37;42.50;;;20.07;;
45522;SDS011;31254;51.680;5.394;2022-12-18T02:01:09;49.50;;;19.40;;
45522;SDS011;31254;51.680;5.394;2022-12-18T02:03:36;42.00;;;20.33;;
45522;SDS011;31254;51.680;5.394;2022-12-18T02:08:48;49.63;;;20.00;;
45522;SDS011;31254;51.680;5.394;2022-12-18T02:17:12;42.93;;;19.63;;
45522;SDS011;31254;51.680;5.394;2022-12-18T02:28:06;40.97;;;18.83;;
45522;SDS011;31254;51.680;5.394;2022-12-18T02:30:37;43.07;;;18.17;;
45522;SDS011;31254;51.680;5.394;2022-12-18T02:33:07;40.90;;;18.57;;
45522;SDS011;31254;51.680;5.394;2022-12-18T02:35:35;44.70;;;19.20;;
45522;SDS011;31254;51.680;5.394;2022-12-18T02:38:04;38.33;;;17.33;;
45522;SDS011;31254;51.680;5.394;2022-12-18T02:40:33;41.70;;;19.67;;
45522;SDS011;31254;51.680;5.394;2022-12-18T02:43:03;41.10;;;19.03;;
45522;SDS011;31254;51.680;5.394;2022-12-18T02:45:34;44.03;;;17.93;;
45522;SDS011;31254;51.680;5.394;2022-12-18T02:48:00;37.33;;;17.90;;
45522;SDS011;31254;51.680;5.394;2022-12-18T02:50:33;46.83;;;19.97;;
45522;SDS011;31254;51.680;5.394;2022-12-18T02:53:14;39.30;;;18.17;;
45522;SDS011;31254;51.680;5.394;2022-12-18T02:58:31;44.73;;;18.63;;
45522;SDS011;31254;51.680;5.394;2022-12-18T03:01:16;49.47;;;18.33;;
45522;SDS011;31254;51.680;5.394;2022-12-18T03:04:04;41.33;;;17.67;;
45522;SDS011;31254;51.680;5.394;2022-12-18T03:06:41;45.30;;;18.10;;
45522;SDS011;31254;51.680;5.394;2022-12-18T03:09:14;41.37;;;17.80;;
45522;SDS011;31254;51.680;5.394;2022-12-18T03:11:46;48.03;;;17.40;;
45522;SDS011;31254;51.680;5.394;2022-12-18T03:14:38;33.53;;;16.00;;
45522;SDS011;31254;51.680;5.394;2022-12-18T03:17:09;40.63;;;16.57;;
45522;SDS011;31254;51.680;5.394;2022-12-18T03:19:39;40.07;;;17.80;;
45522;SDS011;31254;51.680;5.394;2022-12-18T03:22:08;42.47;;;17.97;;
45522;SDS011;31254;51.680;5.394;2022-12-18T03:24:36;42.60;;;18.07;;
45522;SDS011;31254;51.680;5.394;2022-12-18T03:27:07;40.00;;;17.20;;
45522;SDS011;31254;51.680;5.394;2022-12-18T03:29:46;38.00;;;18.27;;
45522;SDS011;31254;51.680;5.394;2022-12-18T03:32:21;44.10;;;18.30;;
45522;SDS011;31254;51.680;5.394;2022-12-18T03:34:53;41.97;;;18.43;;
45522;SDS011;31254;51.680;5.394;2022-12-18T03:37:23;38.90;;;17.97;;
45522;SDS011;31254;51.680;5.394;2022-12-18T03:39:50;51.20;;;20.53;;
45522;SDS011;31254;51.680;5.394;2022-12-18T03:50:22;41.43;;;17.23;;
45522;SDS011;31254;51.680;5.394;2022-12-18T03:53:17;46.80;;;19.00;;
45522;SDS011;31254;51.680;5.394;2022-12-18T03:55:51;37.93;;;17.07;;
45522;SDS011;31254;51.680;5.394;2022-12-18T03:58:22;40.60;;;16.90;;
45522;SDS011;31254;51.680;5.394;2022-12-18T04:00:52;36.63;;;16.07;;
45522;SDS011;31254;51.680;5.394;2022-12-18T04:03:24;41.57;;;17.63;;
45522;SDS011;31254;51.680;5.394;2022-12-18T04:05:54;37.87;;;16.57;;
45522;SDS011;31254;51.680;5.394;2022-12-18T04:08:24;41.70;;;16.40;;
45522;SDS011;31254;51.680;5.394;2022-12-18T04:10:51;35.13;;;16.40;;
45522;SDS011;31254;51.680;5.394;2022-12-18T04:13:27;34.57;;;15.90;;
45522;SDS011;31254;51.680;5.394;2022-12-18T04:15:55;33.40;;;16.73;;
45522;SDS011;31254;51.680;5.394;2022-12-18T04:18:24;29.83;;;15.00;;
45522;SDS011;31254;51.680;5.394;2022-12-18T04:20:51;31.73;;;15.03;;
45522;SDS011;31254;51.680;5.394;2022-12-18T04:23:18;31.10;;;15.37;;
45522;SDS011;31254;51.680;5.394;2022-12-18T04:25:47;35.00;;;15.03;;
45522;SDS011;31254;51.680;5.394;2022-12-18T04:28:13;36.30;;;14.90;;
45522;SDS011;31254;51.680;5.394;2022-12-18T04:30:42;27.23;;;11.83;;
45522;SDS011;31254;51.680;5.394;2022-12-18T04:33:14;30.30;;;15.20;;
45522;SDS011;31254;51.680;5.394;2022-12-18T04:35:41;30.60;;;13.77;;
45522;SDS011;31254;51.680;5.394;2022-12-18T04:38:10;33.00;;;14.73;;
45522;SDS011;31254;51.680;5.394;2022-12-18T04:40:37;31.80;;;15.80;;
45522;SDS011;31254;51.680;5.394;2022-12-18T04:43:06;33.03;;;14.43;;
45522;SDS011;31254;51.680;5.394;2022-12-18T04:45:33;32.17;;;13.27;;
45522;SDS011;31254;51.680;5.394;2022-12-18T04:48:02;31.30;;;14.23;;
45522;SDS011;31254;51.680;5.394;2022-12-18T04:50:32;34.73;;;15.70;;
45522;SDS011;31254;51.680;5.394;2022-12-18T04:52:58;26.77;;;13.33;;
45522;SDS011;31254;51.680;5.394;2022-12-18T04:55:25;27.10;;;13.33;;
45522;SDS011;31254;51.680;5.394;2022-12-18T04:57:54;35.33;;;15.17;;
45522;SDS011;31254;51.680;5.394;2022-12-18T05:00:21;37.73;;;15.50;;
45522;SDS011;31254;51.680;5.394;2022-12-18T05:02:48;31.53;;;14.50;;
45522;SDS011;31254;51.680;5.394;2022-12-18T05:05:15;29.43;;;14.53;;
45522;SDS011;31254;51.680;5.394;2022-12-18T05:07:42;28.27;;;13.70;;
45522;SDS011;31254;51.680;5.394;2022-12-18T05:10:11;28.63;;;14.53;;
45522;SDS011;31254;51.680;5.394;2022-12-18T05:12:38;25.33;;;12.20;;
45522;SDS011;31254;51.680;5.394;2022-12-18T05:15:29;28.83;;;12.63;;
45522;SDS011;31254;51.680;5.394;2022-12-18T05:17:57;25.57;;;13.53;;
45522;SDS011;31254;51.680;5.394;2022-12-18T05:20:25;28.50;;;12.87;;
45522;SDS011;31254;51.680;5.394;2022-12-18T05:22:53;26.87;;;12.83;;
45522;SDS011;31254;51.680;5.394;2022-12-18T05:25:20;28.60;;;12.10;;
45522;SDS011;31254;51.680;5.394;2022-12-18T05:27:47;27.80;;;13.73;;
45522;SDS011;31254;51.680;5.394;2022-12-18T05:30:14;23.50;;;12.10;;
45522;SDS011;31254;51.680;5.394;2022-12-18T05:32:42;28.20;;;13.97;;
45522;SDS011;31254;51.680;5.394;2022-12-18T05:35:09;33.17;;;14.50;;
45522;SDS011;31254;51.680;5.394;2022-12-18T05:37:40;29.80;;;15.07;;
45522;SDS011;31254;51.680;5.394;2022-12-18T05:40:09;31.23;;;13.83;;
45522;SDS011;31254;51.680;5.394;2022-12-18T05:42:36;31.50;;;14.17;;
45522;SDS011;31254;51.680;5.394;2022-12-18T05:45:03;31.07;;;14.33;;
45522;SDS011;31254;51.680;5.394;2022-12-18T05:47:30;30.43;;;14.27;;
45522;SDS011;31254;51.680;5.394;2022-12-18T05:49:57;33.20;;;15.10;;
45522;SDS011;31254;51.680;5.394;2022-12-18T05:52:24;30.17;;;14.73;;
45522;SDS011;31254;51.680;5.394;2022-12-18T05:54:50;32.47;;;14.27;;
45522;SDS011;31254;51.680;5.394;2022-12-18T05:57:17;30.77;;;14.53;;
45522;SDS011;31254;51.680;5.394;2022-12-18T05:59:43;29.00;;;14.33;;
45522;SDS011;31254;51.680;5.394;2022-12-18T06:02:10;34.53;;;14.63;;
45522;SDS011;31254;51.680;5.394;2022-12-18T06:04:37;31.63;;;14.17;;
45522;SDS011;31254;51.680;5.394;2022-12-18T06:07:06;30.80;;;12.77;;
45522;SDS011;31254;51.680;5.394;2022-12-18T06:09:32;24.70;;;12.50;;
45522;SDS011;31254;51.680;5.394;2022-12-18T06:11:59;24.93;;;13.77;;
45522;SDS011;31254;51.680;5.394;2022-12-18T06:14:26;34.23;;;14.37;;
45522;SDS011;31254;51.680;5.394;2022-12-18T06:16:52;30.13;;;13.10;;
45522;SDS011;31254;51.680;5.394;2022-12-18T06:19:19;27.27;;;13.67;;
45522;SDS011;31254;51.680;5.394;2022-12-18T06:21:46;25.33;;;11.97;;
45522;SDS011;31254;51.680;5.394;2022-12-18T06:24:12;30.40;;;13.03;;
45522;SDS011;31254;51.680;5.394;2022-12-18T06:26:39;26.90;;;12.70;;
45522;SDS011;31254;51.680;5.394;2022-12-18T06:29:06;25.30;;;12.10;;
45522;SDS011;31254;51.680;5.394;2022-12-18T06:31:32;26.23;;;11.80;;
45522;SDS011;31254;51.680;5.394;2022-12-18T06:34:01;23.83;;;11.73;;
45522;SDS011;31254;51.680;5.394;2022-12-18T06:36:31;23.00;;;11.23;;
45522;SDS011;31254;51.680;5.394;2022-12-18T06:38:58;28.43;;;11.83;;
45522;SDS011;31254;51.680;5.394;2022-12-18T06:41:26;31.47;;;14.07;;
45522;SDS011;31254;51.680;5.394;2022-12-18T06:43:53;28.70;;;12.63;;
45522;SDS011;31254;51.680;5.394;2022-12-18T06:46:25;24.80;;;12.23;;
45522;SDS011;31254;51.680;5.394;2022-12-18T06:48:52;29.50;;;13.37;;
45522;SDS011;31254;51.680;5.394;2022-12-18T06:51:22;27.53;;;12.97;;
45522;SDS011;31254;51.680;5.394;2022-12-18T06:53:52;26.80;;;12.57;;
45522;SDS011;31254;51.680;5.394;2022-12-18T06:56:19;22.27;;;11.50;;
45522;SDS011;31254;51.680;5.394;2022-12-18T06:58:45;24.53;;;11.50;;
45522;SDS011;31254;51.680;5.394;2022-12-18T07:01:12;24.77;;;12.67;;
45522;SDS011;31254;51.680;5.394;2022-12-18T07:03:40;28.00;;;12.77;;
45522;SDS011;31254;51.680;5.394;2022-12-18T07:06:15;23.90;;;12.60;;
45522;SDS011;31254;51.680;5.394;2022-12-18T07:08:44;27.60;;;13.50;;
45522;SDS011;31254;51.680;5.394;2022-12-18T07:11:14;28.10;;;12.57;;
45522;SDS011;31254;51.680;5.394;2022-12-18T07:13:42;30.90;;;13.17;;
45522;SDS011;31254;51.680;5.394;2022-12-18T07:16:10;28.83;;;13.00;;
45522;SDS011;31254;51.680;5.394;2022-12-18T07:18:47;29.30;;;12.73;;
45522;SDS011;31254;51.680;5.394;2022-12-18T07:21:15;27.23;;;13.50;;
45522;SDS011;31254;51.680;5.394;2022-12-18T07:23:44;25.80;;;12.77;;
45522;SDS011;31254;51.680;5.394;2022-12-18T07:26:15;26.33;;;12.87;;
45522;SDS011;31254;51.680;5.394;2022-12-18T07:28:44;25.40;;;11.43;;
45522;SDS011;31254;51.680;5.394;2022-12-18T07:31:12;28.10;;;13.17;;
45522;SDS011;31254;51.680;5.394;2022-12-18T07:33:41;31.93;;;12.53;;
45522;SDS011;31254;51.680;5.394;2022-12-18T07:36:09;28.40;;;12.10;;
45522;SDS011;31254;51.680;5.394;2022-12-18T07:38:39;24.43;;;12.80;;
45522;SDS011;31254;51.680;5.394;2022-12-18T07:43:37;29.73;;;13.03;;
45522;SDS011;31254;51.680;5.394;2022-12-18T07:46:08;27.27;;;12.67;;
45522;SDS011;31254;51.680;5.394;2022-12-18T07:48:40;29.53;;;13.10;;
45522;SDS011;31254;51.680;5.394;2022-12-18T07:51:09;28.37;;;12.47;;
45522;SDS011;31254;51.680;5.394;2022-12-18T07:53:39;24.67;;;12.40;;
45522;SDS011;31254;51.680;5.394;2022-12-18T07:56:10;25.70;;;12.90;;
45522;SDS011;31254;51.680;5.394;2022-12-18T07:58:56;25.93;;;12.73;;
45522;SDS011;31254;51.680;5.394;2022-12-18T08:01:23;26.30;;;11.97;;
45522;SDS011;31254;51.680;5.394;2022-12-18T08:03:51;28.90;;;12.83;;
45522;SDS011;31254;51.680;5.394;2022-12-18T08:06:18;28.13;;;12.80;;
45522;SDS011;31254;51.680;5.394;2022-12-18T08:08:50;26.17;;;12.93;;
45522;SDS011;31254;51.680;5.394;2022-12-18T08:11:20;28.33;;;12.47;;
45522;SDS011;31254;51.680;5.394;2022-12-18T08:13:50;28.03;;;13.07;;
45522;SDS011;31254;51.680;5.394;2022-12-18T08:16:17;27.17;;;13.40;;
45522;SDS011;31254;51.680;5.394;2022-12-18T08:18:45;26.03;;;13.63;;
45522;SDS011;31254;51.680;5.394;2022-12-18T08:23:43;31.27;;;13.40;;
45522;SDS011;31254;51.680;5.394;2022-12-18T08:26:11;29.47;;;14.23;;
45522;SDS011;31254;51.680;5.394;2022-12-18T08:28:39;30.57;;;13.37;;
45522;SDS011;31254;51.680;5.394;2022-12-18T08:31:06;22.63;;;12.50;;
45522;SDS011;31254;51.680;5.394;2022-12-18T08:33:34;26.30;;;13.00;;
45522;SDS011;31254;51.680;5.394;2022-12-18T08:36:04;31.63;;;13.13;;
45522;SDS011;31254;51.680;5.394;2022-12-18T08:38:32;22.20;;;12.67;;
45522;SDS011;31254;51.680;5.394;2022-12-18T08:40:59;27.13;;;12.60;;
45522;SDS011;31254;51.680;5.394;2022-12-18T08:43:27;29.17;;;13.50;;
45522;SDS011;31254;51.680;5.394;2022-12-18T08:46:12;25.17;;;12.17;;
45522;SDS011;31254;51.680;5.394;2022-12-18T08:48:39;26.83;;;12.63;;
45522;SDS011;31254;51.680;5.394;2022-12-18T08:51:08;27.83;;;13.97;;
45522;SDS011;31254;51.680;5.394;2022-12-18T08:53:36;22.67;;;12.03;;
45522;SDS011;31254;51.680;5.394;2022-12-18T08:56:04;24.83;;;12.00;;
45522;SDS011;31254;51.680;5.394;2022-12-18T08:58:31;24.60;;;12.07;;
45522;SDS011;31254;51.680;5.394;2022-12-18T09:01:01;29.80;;;13.60;;
45522;SDS011;31254;51.680;5.394;2022-12-18T09:03:35;24.70;;;13.03;;
45522;SDS011;31254;51.680;5.394;2022-12-18T09:06:03;24.43;;;12.60;;
45522;SDS011;31254;51.680;5.394;2022-12-18T09:08:32;28.73;;;12.47;;
45522;SDS011;31254;51.680;5.394;2022-12-18T09:10:59;23.73;;;12.43;;
45522;SDS011;31254;51.680;5.394;2022-12-18T09:13:26;23.77;;;11.13;;
45522;SDS011;31254;51.680;5.394;2022-12-18T09:15:53;17.63;;;8.97;;
45522;SDS011;31254;51.680;5.394;2022-12-18T09:18:21;23.33;;;11.53;;
45522;SDS011;31254;51.680;5.394;2022-12-18T09:20:49;27.37;;;12.43;;
45522;SDS011;31254;51.680;5.394;2022-12-18T09:23:18;25.37;;;12.90;;
45522;SDS011;31254;51.680;5.394;2022-12-18T09:25:45;26.33;;;13.70;;
45522;SDS011;31254;51.680;5.394;2022-12-18T09:28:15;26.50;;;12.63;;
45522;SDS011;31254;51.680;5.394;2022-12-18T09:30:44;24.07;;;12.27;;
45522;SDS011;31254;51.680;5.394;2022-12-18T09:33:13;26.67;;;12.93;;
45522;SDS011;31254;51.680;5.394;2022-12-18T09:35:40;23.80;;;11.70;;
45522;SDS011;31254;51.680;5.394;2022-12-18T09:38:08;24.93;;;11.83;;
45522;SDS011;31254;51.680;5.394;2022-12-18T09:41:24;25.63;;;12.37;;
45522;SDS011;31254;51.680;5.394;2022-12-18T09:43:47;26.00;;;12.47;;
45522;SDS011;31254;51.680;5.394;2022-12-18T09:46:19;26.13;;;13.63;;
45522;SDS011;31254;51.680;5.394;2022-12-18T09:48:54;22.20;;;10.53;;
45522;SDS011;31254;51.680;5.394;2022-12-18T09:51:42;25.47;;;13.17;;
45522;SDS011;31254;51.680;5.394;2022-12-18T09:54:16;25.27;;;13.00;;
45522;SDS011;31254;51.680;5.394;2022-12-18T09:56:48;27.20;;;12.33;;
45522;SDS011;31254;51.680;5.394;2022-12-18T09:59:23;28.47;;;12.03;;
45522;SDS011;31254;51.680;5.394;2022-12-18T10:01:53;24.10;;;12.27;;
45522;SDS011;31254;51.680;5.394;2022-12-18T10:04:20;22.30;;;12.10;;
45522;SDS011;31254;51.680;5.394;2022-12-18T10:06:52;23.17;;;12.47;;
45522;SDS011;31254;51.680;5.394;2022-12-18T10:09:37;21.83;;;11.47;;
45522;SDS011;31254;51.680;5.394;2022-12-18T10:12:13;26.03;;;12.60;;
45522;SDS011;31254;51.680;5.394;2022-12-18T10:19:56;25.53;;;12.10;;
45522;SDS011;31254;51.680;5.394;2022-12-18T10:22:54;26.20;;;13.03;;
45522;SDS011;31254;51.680;5.394;2022-12-18T10:25:41;23.27;;;11.07;;
45522;SDS011;31254;51.680;5.394;2022-12-18T10:28:35;33.03;;;12.63;;
45522;SDS011;31254;51.680;5.394;2022-12-18T10:31:07;25.00;;;12.97;;
45522;SDS011;31254;51.680;5.394;2022-12-18T10:33:42;28.27;;;12.83;;
45522;SDS011;31254;51.680;5.394;2022-12-18T10:36:09;23.00;;;12.33;;
45522;SDS011;31254;51.680;5.394;2022-12-18T10:38:36;18.77;;;11.33;;
45522;SDS011;31254;51.680;5.394;2022-12-18T10:41:08;26.70;;;11.77;;
45522;SDS011;31254;51.680;5.394;2022-12-18T10:44:10;26.60;;;13.17;;
45522;SDS011;31254;51.680;5.394;2022-12-18T10:46:44;23.43;;;11.23;;
45522;SDS011;31254;51.680;5.394;2022-12-18T10:49:21;24.77;;;12.87;;
45522;SDS011;31254;51.680;5.394;2022-12-18T10:54:50;18.87;;;10.27;;
45522;SDS011;31254;51.680;5.394;2022-12-18T10:59:53;25.97;;;11.80;;
45522;SDS011;31254;51.680;5.394;2022-12-18T11:02:34;23.77;;;12.63;;
45522;SDS011;31254;51.680;5.394;2022-12-18T11:05:03;27.07;;;13.33;;
45522;SDS011;31254;51.680;5.394;2022-12-18T11:07:49;29.23;;;12.57;;
45522;SDS011;31254;51.680;5.394;2022-12-18T11:10:17;22.27;;;11.83;;
45522;SDS011;31254;51.680;5.394;2022-12-18T11:12:45;23.97;;;13.37;;
45522;SDS011;31254;51.680;5.394;2022-12-18T11:15:19;27.97;;;12.93;;
45522;SDS011;31254;51.680;5.394;2022-12-18T11:17:49;27.33;;;12.97;;
45522;SDS011;31254;51.680;5.394;2022-12-18T11:20:29;24.97;;;12.30;;
45522;SDS011;31254;51.680;5.394;2022-12-18T11:23:10;25.07;;;12.80;;
45522;SDS011;31254;51.680;5.394;2022-12-18T11:25:39;26.33;;;13.10;;
45522;SDS011;31254;51.680;5.394;2022-12-18T11:31:19;27.33;;;12.53;;
45522;SDS011;31254;51.680;5.394;2022-12-18T11:33:50;23.97;;;12.43;;
45522;SDS011;31254;51.680;5.394;2022-12-18T11:36:45;27.57;;;12.27;;
45522;SDS011;31254;51.680;5.394;2022-12-18T11:39:18;24.77;;;13.13;;
45522;SDS011;31254;51.680;5.394;2022-12-18T11:50:50;26.10;;;12.87;;
45522;SDS011;31254;51.680;5.394;2022-12-18T11:53:17;30.30;;;13.80;;
45522;SDS011;31254;51.680;5.394;2022-12-18T11:58:29;26.27;;;12.77;;
45522;SDS011;31254;51.680;5.394;2022-12-18T12:01:06;25.23;;;13.07;;
45522;SDS011;31254;51.680;5.394;2022-12-18T12:09:20;29.20;;;13.23;;
45522;SDS011;31254;51.680;5.394;2022-12-18T12:15:25;22.90;;;11.73;;
45522;SDS011;31254;51.680;5.394;2022-12-18T12:18:03;26.70;;;12.73;;
45522;SDS011;31254;51.680;5.394;2022-12-18T12:29:09;26.03;;;13.13;;
45522;SDS011;31254;51.680;5.394;2022-12-18T12:32:07;25.47;;;13.03;;
45522;SDS011;31254;51.680;5.394;2022-12-18T12:40:27;26.43;;;12.00;;
45522;SDS011;31254;51.680;5.394;2022-12-18T12:46:04;25.23;;;12.80;;
45522;SDS011;31254;51.680;5.394;2022-12-18T12:48:47;24.60;;;12.50;;
45522;SDS011;31254;51.680;5.394;2022-12-18T12:51:25;23.03;;;11.67;;
45522;SDS011;31254;51.680;5.394;2022-12-18T12:53:56;21.93;;;12.13;;
45522;SDS011;31254;51.680;5.394;2022-12-18T12:56:48;23.63;;;12.80;;
45522;SDS011;31254;51.680;5.394;2022-12-18T12:59:32;28.73;;;12.80;;
45522;SDS011;31254;51.680;5.394;2022-12-18T13:04:59;30.50;;;13.33;;
45522;SDS011;31254;51.680;5.394;2022-12-18T13:07:56;25.27;;;12.50;;
45522;SDS011;31254;51.680;5.394;2022-12-18T13:10:26;26.50;;;12.73;;
45522;SDS011;31254;51.680;5.394;2022-12-18T13:13:11;27.40;;;13.80;;
45522;SDS011;31254;51.680;5.394;2022-12-18T13:15:46;27.53;;;12.43;;
45522;SDS011;31254;51.680;5.394;2022-12-18T13:18:29;24.37;;;13.03;;
45522;SDS011;31254;51.680;5.394;2022-12-18T13:28:54;27.77;;;13.87;;
45522;SDS011;31254;51.680;5.394;2022-12-18T13:34:23;27.77;;;13.00;;
45522;SDS011;31254;51.680;5.394;2022-12-18T13:36:57;30.10;;;13.30;;
45522;SDS011;31254;51.680;5.394;2022-12-18T13:39:58;27.07;;;12.70;;
45522;SDS011;31254;51.680;5.394;2022-12-18T13:45:39;27.50;;;14.30;;
45522;SDS011;31254;51.680;5.394;2022-12-18T13:48:14;27.87;;;12.87;;
45522;SDS011;31254;51.680;5.394;2022-12-18T13:50:43;25.83;;;13.70;;
45522;SDS011;31254;51.680;5.394;2022-12-18T13:53:18;34.53;;;14.40;;
45522;SDS011;31254;51.680;5.394;2022-12-18T13:55:48;25.60;;;13.20;;
45522;SDS011;31254;51.680;5.394;2022-12-18T13:58:16;26.70;;;13.00;;
45522;SDS011;31254;51.680;5.394;2022-12-18T14:00:43;28.87;;;13.47;;
45522;SDS011;31254;51.680;5.394;2022-12-18T14:03:21;28.07;;;13.30;;
45522;SDS011;31254;51.680;5.394;2022-12-18T14:06:01;30.50;;;12.40;;
45522;SDS011;31254;51.680;5.394;2022-12-18T14:08:33;28.00;;;14.57;;
45522;SDS011;31254;51.680;5.394;2022-12-18T14:11:04;30.57;;;14.90;;
45522;SDS011;31254;51.680;5.394;2022-12-18T14:13:37;27.17;;;13.13;;
45522;SDS011;31254;51.680;5.394;2022-12-18T14:16:11;28.83;;;13.93;;
45522;SDS011;31254;51.680;5.394;2022-12-18T14:21:40;29.70;;;13.97;;
45522;SDS011;31254;51.680;5.394;2022-12-18T14:24:16;27.53;;;13.57;;
45522;SDS011;31254;51.680;5.394;2022-12-18T14:26:48;26.53;;;13.23;;
45522;SDS011;31254;51.680;5.394;2022-12-18T14:29:28;27.90;;;14.37;;
45522;SDS011;31254;51.680;5.394;2022-12-18T14:32:15;29.17;;;13.57;;
45522;SDS011;31254;51.680;5.394;2022-12-18T14:34:51;32.97;;;13.43;;
45522;SDS011;31254;51.680;5.394;2022-12-18T14:37:23;27.03;;;14.17;;
45522;SDS011;31254;51.680;5.394;2022-12-18T14:39:52;26.97;;;14.40;;
45522;SDS011;31254;51.680;5.394;2022-12-18T14:42:32;29.23;;;14.60;;
45522;SDS011;31254;51.680;5.394;2022-12-18T14:51:18;29.07;;;14.20;;
45522;SDS011;31254;51.680;5.394;2022-12-18T14:53:58;33.40;;;14.70;;
45522;SDS011;31254;51.680;5.394;2022-12-18T14:56:27;24.87;;;13.30;;
45522;SDS011;31254;51.680;5.394;2022-12-18T14:58:59;29.20;;;13.97;;
45522;SDS011;31254;51.680;5.394;2022-12-18T15:01:51;28.93;;;13.53;;
45522;SDS011;31254;51.680;5.394;2022-12-18T15:07:04;26.07;;;13.50;;
45522;SDS011;31254;51.680;5.394;2022-12-18T15:09:59;27.93;;;13.23;;
45522;SDS011;31254;51.680;5.394;2022-12-18T15:12:50;26.10;;;14.10;;
45522;SDS011;31254;51.680;5.394;2022-12-18T15:20:51;30.57;;;14.30;;
45522;SDS011;31254;51.680;5.394;2022-12-18T15:26:08;31.27;;;14.73;;
45522;SDS011;31254;51.680;5.394;2022-12-18T15:28:55;31.50;;;13.77;;
45522;SDS011;31254;51.680;5.394;2022-12-18T15:31:30;31.70;;;13.80;;
45522;SDS011;31254;51.680;5.394;2022-12-18T15:34:01;30.40;;;14.70;;
45522;SDS011;31254;51.680;5.394;2022-12-18T15:36:36;24.80;;;13.57;;
45522;SDS011;31254;51.680;5.394;2022-12-18T15:39:03;29.43;;;14.73;;
45522;SDS011;31254;51.680;5.394;2022-12-18T15:41:32;32.80;;;15.40;;
45522;SDS011;31254;51.680;5.394;2022-12-18T15:44:01;33.57;;;16.03;;
45522;SDS011;31254;51.680;5.394;2022-12-18T15:46:29;34.13;;;16.00;;
45522;SDS011;31254;51.680;5.394;2022-12-18T15:48:57;34.73;;;16.00;;
45522;SDS011;31254;51.680;5.394;2022-12-18T15:51:31;33.93;;;15.27;;
45522;SDS011;31254;51.680;5.394;2022-12-18T15:54:03;29.97;;;15.80;;
45522;SDS011;31254;51.680;5.394;2022-12-18T15:56:32;35.57;;;15.23;;
45522;SDS011;31254;51.680;5.394;2022-12-18T15:59:18;31.60;;;15.00;;
45522;SDS011;31254;51.680;5.394;2022-12-18T16:01:49;31.23;;;14.53;;
45522;SDS011;31254;51.680;5.394;2022-12-18T16:04:18;28.03;;;14.17;;
45522;SDS011;31254;51.680;5.394;2022-12-18T16:06:49;28.60;;;14.70;;
45522;SDS011;31254;51.680;5.394;2022-12-18T16:09:37;27.10;;;13.67;;
45522;SDS011;31254;51.680;5.394;2022-12-18T16:12:05;31.73;;;15.50;;
45522;SDS011;31254;51.680;5.394;2022-12-18T16:14:36;31.77;;;15.20;;
45522;SDS011;31254;51.680;5.394;2022-12-18T16:17:03;28.27;;;13.87;;
45522;SDS011;31254;51.680;5.394;2022-12-18T16:19:35;32.13;;;15.20;;
45522;SDS011;31254;51.680;5.394;2022-12-18T16:22:01;30.40;;;14.03;;
45522;SDS011;31254;51.680;5.394;2022-12-18T16:24:34;30.43;;;14.20;;
45522;SDS011;31254;51.680;5.394;2022-12-18T16:27:02;27.47;;;13.73;;
45522;SDS011;31254;51.680;5.394;2022-12-18T16:29:29;29.77;;;13.50;;
45522;SDS011;31254;51.680;5.394;2022-12-18T16:31:59;26.50;;;14.33;;
45522;SDS011;31254;51.680;5.394;2022-12-18T16:34:30;35.47;;;15.00;;
45522;SDS011;31254;51.680;5.394;2022-12-18T16:37:05;27.03;;;14.63;;
45522;SDS011;31254;51.680;5.394;2022-12-18T16:39:33;27.27;;;14.37;;
45522;SDS011;31254;51.680;5.394;2022-12-18T16:42:03;27.90;;;14.03;;
45522;SDS011;31254;51.680;5.394;2022-12-18T16:44:43;36.17;;;14.77;;
45522;SDS011;31254;51.680;5.394;2022-12-18T16:47:10;27.40;;;14.03;;
45522;SDS011;31254;51.680;5.394;2022-12-18T16:49:40;30.03;;;14.90;;
45522;SDS011;31254;51.680;5.394;2022-12-18T16:52:10;28.07;;;14.90;;
45522;SDS011;31254;51.680;5.394;2022-12-18T16:54:36;30.63;;;14.47;;
45522;SDS011;31254;51.680;5.394;2022-12-18T16:57:03;36.53;;;15.63;;
45522;SDS011;31254;51.680;5.394;2022-12-18T16:59:31;26.47;;;14.23;;